sensor_id;sensor_type;location;lat;lon;timestamp;temperature;humidity
50570;DHT22;36525;49.398;7.614;2024-03-08T00:02:15;2.90;99.90
50570;DHT22;36525;49.398;7.614;2024-03-08T00:04:42;2.90;99.90
50570;DHT22;36525;49.398;7.614;2024-03-08T00:07:09;2.90;99.90
50570;DHT22;36525;49.398;7.614;2024-03-08T00:09:35;2.90;99.90
50570;DHT22;36525;49.398;7.614;2024-03-08T00:12:03;2.80;99.90
50570;DHT22;36525;49.398;7.614;2024-03-08T00:14:30;2.80;99.90
50570;DHT22;36525;49.398;7.614;2024-03-08T00:16:57;2.80;99.90
50570;DHT22;36525;49.398;7.614;2024-03-08T00:19:24;2.80;99.90
50570;DHT22;36525;49.398;7.614;2024-03-08T00:21:51;2.80;99.90
50570;DHT22;36525;49.398;7.614;2024-03-08T00:24:18;2.90;99.90
50570;DHT22;36525;49.398;7.614;2024-03-08T00:26:44;2.90;99.90
50570;DHT22;36525;49.398;7.614;2024-03-08T00:29:11;2.80;99.90
50570;DHT22;36525;49.398;7.614;2024-03-08T00:31:39;2.80;99.90
50570;DHT22;36525;49.398;7.614;2024-03-08T00:34:06;2.80;99.90
50570;DHT22;36525;49.398;7.614;2024-03-08T00:36:33;2.80;99.90
50570;DHT22;36525;49.398;7.614;2024-03-08T00:39:00;2.80;99.90
50570;DHT22;36525;49.398;7.614;2024-03-08T00:41:28;2.80;99.90
50570;DHT22;36525;49.398;7.614;2024-03-08T00:43:55;2.80;99.90
50570;DHT22;36525;49.398;7.614;2024-03-08T00:46:21;2.80;99.90
50570;DHT22;36525;49.398;7.614;2024-03-08T00:48:48;2.80;99.90
50570;DHT22;36525;49.398;7.614;2024-03-08T00:51:15;2.80;99.90
50570;DHT22;36525;49.398;7.614;2024-03-08T00:53:42;2.80;99.90
50570;DHT22;36525;49.398;7.614;2024-03-08T00:56:09;2.80;99.90
50570;DHT22;36525;49.398;7.614;2024-03-08T00:58:36;2.80;99.90
50570;DHT22;36525;49.398;7.614;2024-03-08T01:01:03;2.80;99.90
50570;DHT22;36525;49.398;7.614;2024-03-08T01:03:31;2.80;99.90
50570;DHT22;36525;49.398;7.614;2024-03-08T01:05:58;2.80;99.90
50570;DHT22;36525;49.398;7.614;2024-03-08T01:08:27;2.80;99.90
50570;DHT22;36525;49.398;7.614;2024-03-08T01:10:54;2.70;99.90
50570;DHT22;36525;49.398;7.614;2024-03-08T01:13:21;2.70;99.90
50570;DHT22;36525;49.398;7.614;2024-03-08T01:15:48;2.70;99.90
50570;DHT22;36525;49.398;7.614;2024-03-08T01:18:15;2.70;99.90
50570;DHT22;36525;49.398;7.614;2024-03-08T01:20:42;2.70;99.90
50570;DHT22;36525;49.398;7.614;2024-03-08T01:23:08;2.60;99.90
50570;DHT22;36525;49.398;7.614;2024-03-08T01:25:35;2.60;99.90
50570;DHT22;36525;49.398;7.614;2024-03-08T01:28:02;2.60;99.90
50570;DHT22;36525;49.398;7.614;2024-03-08T01:30:29;2.60;99.90
50570;DHT22;36525;49.398;7.614;2024-03-08T01:32:56;2.50;99.90
50570;DHT22;36525;49.398;7.614;2024-03-08T01:35:23;2.50;99.90
50570;DHT22;36525;49.398;7.614;2024-03-08T01:37:50;2.60;99.90
50570;DHT22;36525;49.398;7.614;2024-03-08T01:40:16;2.50;99.90
50570;DHT22;36525;49.398;7.614;2024-03-08T01:42:43;2.50;99.90
50570;DHT22;36525;49.398;7.614;2024-03-08T01:45:11;2.50;99.90
50570;DHT22;36525;49.398;7.614;2024-03-08T01:47:38;2.50;99.90
50570;DHT22;36525;49.398;7.614;2024-03-08T01:50:05;2.50;99.90
50570;DHT22;36525;49.398;7.614;2024-03-08T01:52:33;2.40;99.90
50570;DHT22;36525;49.398;7.614;2024-03-08T01:55:01;2.40;99.90
50570;DHT22;36525;49.398;7.614;2024-03-08T01:57:29;2.50;99.90
50570;DHT22;36525;49.398;7.614;2024-03-08T01:59:57;2.50;99.90
50570;DHT22;36525;49.398;7.614;2024-03-08T02:02:24;2.50;99.90
50570;DHT22;36525;49.398;7.614;2024-03-08T02:04:51;2.60;99.90
50570;DHT22;36525;49.398;7.614;2024-03-08T02:07:19;2.50;99.90
50570;DHT22;36525;49.398;7.614;2024-03-08T02:09:48;2.50;99.90
50570;DHT22;36525;49.398;7.614;2024-03-08T02:12:15;2.50;99.90
50570;DHT22;36525;49.398;7.614;2024-03-08T02:14:42;2.50;99.90
50570;DHT22;36525;49.398;7.614;2024-03-08T02:17:10;2.50;99.90
50570;DHT22;36525;49.398;7.614;2024-03-08T02:19:38;2.50;99.90
50570;DHT22;36525;49.398;7.614;2024-03-08T02:22:05;2.50;99.90
50570;DHT22;36525;49.398;7.614;2024-03-08T02:24:32;2.50;99.90
50570;DHT22;36525;49.398;7.614;2024-03-08T02:27:00;2.50;99.90
50570;DHT22;36525;49.398;7.614;2024-03-08T02:29:27;2.50;99.90
50570;DHT22;36525;49.398;7.614;2024-03-08T02:31:54;2.40;99.90
50570;DHT22;36525;49.398;7.614;2024-03-08T02:34:22;2.40;99.90
50570;DHT22;36525;49.398;7.614;2024-03-08T02:36:48;2.40;99.90
50570;DHT22;36525;49.398;7.614;2024-03-08T02:39:15;2.40;99.90
50570;DHT22;36525;49.398;7.614;2024-03-08T02:41:42;2.40;99.90
50570;DHT22;36525;49.398;7.614;2024-03-08T02:44:09;2.40;99.90
50570;DHT22;36525;49.398;7.614;2024-03-08T02:46:35;2.50;99.90
50570;DHT22;36525;49.398;7.614;2024-03-08T02:49:02;2.50;99.90
50570;DHT22;36525;49.398;7.614;2024-03-08T02:51:29;2.50;99.90
50570;DHT22;36525;49.398;7.614;2024-03-08T02:53:57;2.50;99.90
50570;DHT22;36525;49.398;7.614;2024-03-08T02:56:24;2.50;99.90
50570;DHT22;36525;49.398;7.614;2024-03-08T02:58:50;2.50;99.90
50570;DHT22;36525;49.398;7.614;2024-03-08T03:01:17;2.50;99.90
50570;DHT22;36525;49.398;7.614;2024-03-08T03:03:47;2.50;99.90
50570;DHT22;36525;49.398;7.614;2024-03-08T03:06:14;2.50;99.90
50570;DHT22;36525;49.398;7.614;2024-03-08T03:08:42;2.50;99.90
50570;DHT22;36525;49.398;7.614;2024-03-08T03:11:09;2.40;99.90
50570;DHT22;36525;49.398;7.614;2024-03-08T03:13:36;2.40;99.90
50570;DHT22;36525;49.398;7.614;2024-03-08T03:16:02;2.40;99.90
50570;DHT22;36525;49.398;7.614;2024-03-08T03:18:30;2.30;99.90
50570;DHT22;36525;49.398;7.614;2024-03-08T03:20:57;2.30;99.90
50570;DHT22;36525;49.398;7.614;2024-03-08T03:23:24;2.30;99.90
50570;DHT22;36525;49.398;7.614;2024-03-08T03:25:52;2.30;99.90
50570;DHT22;36525;49.398;7.614;2024-03-08T03:28:19;2.20;99.90
50570;DHT22;36525;49.398;7.614;2024-03-08T03:30:48;2.30;99.90
50570;DHT22;36525;49.398;7.614;2024-03-08T03:33:15;2.20;99.90
50570;DHT22;36525;49.398;7.614;2024-03-08T03:35:43;2.20;99.90
50570;DHT22;36525;49.398;7.614;2024-03-08T03:38:11;2.20;99.90
50570;DHT22;36525;49.398;7.614;2024-03-08T03:40:38;2.10;99.90
50570;DHT22;36525;49.398;7.614;2024-03-08T03:43:06;2.10;99.90
50570;DHT22;36525;49.398;7.614;2024-03-08T03:45:34;2.00;99.90
50570;DHT22;36525;49.398;7.614;2024-03-08T03:48:06;2.00;99.90
50570;DHT22;36525;49.398;7.614;2024-03-08T03:50:37;2.00;99.90
50570;DHT22;36525;49.398;7.614;2024-03-08T03:53:05;2.00;99.90
50570;DHT22;36525;49.398;7.614;2024-03-08T03:55:37;1.90;99.90
50570;DHT22;36525;49.398;7.614;2024-03-08T03:58:07;1.90;99.90
50570;DHT22;36525;49.398;7.614;2024-03-08T04:00:36;1.80;99.90
50570;DHT22;36525;49.398;7.614;2024-03-08T04:03:03;1.70;99.90
50570;DHT22;36525;49.398;7.614;2024-03-08T04:05:30;1.70;99.90
50570;DHT22;36525;49.398;7.614;2024-03-08T04:07:57;1.70;99.90
50570;DHT22;36525;49.398;7.614;2024-03-08T04:10:24;1.70;99.90
50570;DHT22;36525;49.398;7.614;2024-03-08T04:12:51;1.70;99.90
50570;DHT22;36525;49.398;7.614;2024-03-08T04:15:19;1.70;99.90
50570;DHT22;36525;49.398;7.614;2024-03-08T04:17:46;1.70;99.90
50570;DHT22;36525;49.398;7.614;2024-03-08T04:20:13;1.70;99.90
50570;DHT22;36525;49.398;7.614;2024-03-08T04:22:40;1.70;99.90
50570;DHT22;36525;49.398;7.614;2024-03-08T04:25:07;1.60;99.90
50570;DHT22;36525;49.398;7.614;2024-03-08T04:27:35;1.60;99.90
50570;DHT22;36525;49.398;7.614;2024-03-08T04:30:02;1.60;99.90
50570;DHT22;36525;49.398;7.614;2024-03-08T04:32:30;1.60;99.90
50570;DHT22;36525;49.398;7.614;2024-03-08T04:34:59;1.60;99.90
50570;DHT22;36525;49.398;7.614;2024-03-08T04:37:30;1.60;99.90
50570;DHT22;36525;49.398;7.614;2024-03-08T04:39:57;1.50;99.90
50570;DHT22;36525;49.398;7.614;2024-03-08T04:42:24;1.50;99.90
50570;DHT22;36525;49.398;7.614;2024-03-08T04:44:52;1.50;99.90
50570;DHT22;36525;49.398;7.614;2024-03-08T04:47:20;1.40;99.90
50570;DHT22;36525;49.398;7.614;2024-03-08T04:49:47;1.40;99.90
50570;DHT22;36525;49.398;7.614;2024-03-08T04:52:14;1.40;99.90
50570;DHT22;36525;49.398;7.614;2024-03-08T04:54:40;1.30;99.90
50570;DHT22;36525;49.398;7.614;2024-03-08T04:57:07;1.20;99.90
50570;DHT22;36525;49.398;7.614;2024-03-08T04:59:35;1.20;99.90
50570;DHT22;36525;49.398;7.614;2024-03-08T05:02:03;1.20;99.90
50570;DHT22;36525;49.398;7.614;2024-03-08T05:04:30;1.20;99.90
50570;DHT22;36525;49.398;7.614;2024-03-08T05:06:57;1.20;99.90
50570;DHT22;36525;49.398;7.614;2024-03-08T05:09:24;1.10;99.90
50570;DHT22;36525;49.398;7.614;2024-03-08T05:11:50;1.20;99.90
50570;DHT22;36525;49.398;7.614;2024-03-08T05:14:17;1.20;99.90
50570;DHT22;36525;49.398;7.614;2024-03-08T05:16:47;1.20;99.90
50570;DHT22;36525;49.398;7.614;2024-03-08T05:19:17;1.20;99.90
50570;DHT22;36525;49.398;7.614;2024-03-08T05:21:46;1.20;99.90
50570;DHT22;36525;49.398;7.614;2024-03-08T05:24:15;1.10;99.90
50570;DHT22;36525;49.398;7.614;2024-03-08T05:26:43;1.10;99.90
50570;DHT22;36525;49.398;7.614;2024-03-08T05:29:10;1.10;99.90
50570;DHT22;36525;49.398;7.614;2024-03-08T05:31:38;1.00;99.90
50570;DHT22;36525;49.398;7.614;2024-03-08T05:34:12;1.00;99.90
50570;DHT22;36525;49.398;7.614;2024-03-08T05:36:41;0.90;99.90
50570;DHT22;36525;49.398;7.614;2024-03-08T05:39:11;0.90;99.90
50570;DHT22;36525;49.398;7.614;2024-03-08T05:41:39;1.00;99.90
50570;DHT22;36525;49.398;7.614;2024-03-08T05:44:07;0.90;99.90
50570;DHT22;36525;49.398;7.614;2024-03-08T05:46:35;0.90;99.90
50570;DHT22;36525;49.398;7.614;2024-03-08T05:49:08;1.00;99.90
50570;DHT22;36525;49.398;7.614;2024-03-08T05:51:37;0.90;99.90
50570;DHT22;36525;49.398;7.614;2024-03-08T05:54:06;0.90;99.90
50570;DHT22;36525;49.398;7.614;2024-03-08T05:56:38;0.90;99.90
50570;DHT22;36525;49.398;7.614;2024-03-08T05:59:08;0.80;99.90
50570;DHT22;36525;49.398;7.614;2024-03-08T06:01:36;0.90;99.90
50570;DHT22;36525;49.398;7.614;2024-03-08T06:04:03;0.90;99.90
50570;DHT22;36525;49.398;7.614;2024-03-08T06:06:30;0.90;99.90
50570;DHT22;36525;49.398;7.614;2024-03-08T06:08:57;0.90;99.90
50570;DHT22;36525;49.398;7.614;2024-03-08T06:11:25;0.90;99.90
50570;DHT22;36525;49.398;7.614;2024-03-08T06:13:57;1.00;99.90
50570;DHT22;36525;49.398;7.614;2024-03-08T06:16:26;1.00;99.90
50570;DHT22;36525;49.398;7.614;2024-03-08T06:18:56;1.10;99.90
50570;DHT22;36525;49.398;7.614;2024-03-08T06:21:27;1.10;99.90
50570;DHT22;36525;49.398;7.614;2024-03-08T06:23:54;1.10;99.90
50570;DHT22;36525;49.398;7.614;2024-03-08T06:26:24;1.10;99.90
50570;DHT22;36525;49.398;7.614;2024-03-08T06:28:55;1.10;99.90
50570;DHT22;36525;49.398;7.614;2024-03-08T06:31:23;1.10;99.90
50570;DHT22;36525;49.398;7.614;2024-03-08T06:33:50;1.10;99.90
50570;DHT22;36525;49.398;7.614;2024-03-08T06:36:17;1.10;99.90
50570;DHT22;36525;49.398;7.614;2024-03-08T06:38:51;1.20;99.90
50570;DHT22;36525;49.398;7.614;2024-03-08T06:41:18;1.30;99.90
50570;DHT22;36525;49.398;7.614;2024-03-08T06:43:46;1.20;99.90
50570;DHT22;36525;49.398;7.614;2024-03-08T06:46:14;1.20;99.90
50570;DHT22;36525;49.398;7.614;2024-03-08T06:48:41;1.30;99.90
50570;DHT22;36525;49.398;7.614;2024-03-08T06:51:09;1.40;99.90
50570;DHT22;36525;49.398;7.614;2024-03-08T06:53:38;1.30;99.90
50570;DHT22;36525;49.398;7.614;2024-03-08T06:56:07;1.40;99.90
50570;DHT22;36525;49.398;7.614;2024-03-08T06:58:35;1.50;99.90
50570;DHT22;36525;49.398;7.614;2024-03-08T07:01:02;1.50;99.90
50570;DHT22;36525;49.398;7.614;2024-03-08T07:03:31;1.60;99.90
50570;DHT22;36525;49.398;7.614;2024-03-08T07:05:59;1.70;99.90
50570;DHT22;36525;49.398;7.614;2024-03-08T07:08:27;1.70;99.90
50570;DHT22;36525;49.398;7.614;2024-03-08T07:10:54;1.70;99.90
50570;DHT22;36525;49.398;7.614;2024-03-08T07:13:21;1.80;99.90
50570;DHT22;36525;49.398;7.614;2024-03-08T07:15:48;1.90;99.90
50570;DHT22;36525;49.398;7.614;2024-03-08T07:18:15;1.90;99.90
50570;DHT22;36525;49.398;7.614;2024-03-08T07:20:42;1.90;99.90
50570;DHT22;36525;49.398;7.614;2024-03-08T07:23:10;1.90;99.90
50570;DHT22;36525;49.398;7.614;2024-03-08T07:25:37;2.10;99.90
50570;DHT22;36525;49.398;7.614;2024-03-08T07:28:06;2.10;99.90
50570;DHT22;36525;49.398;7.614;2024-03-08T07:30:38;2.10;99.90
50570;DHT22;36525;49.398;7.614;2024-03-08T07:33:11;2.20;99.90
50570;DHT22;36525;49.398;7.614;2024-03-08T07:35:39;2.30;99.90
50570;DHT22;36525;49.398;7.614;2024-03-08T07:38:07;2.40;99.90
50570;DHT22;36525;49.398;7.614;2024-03-08T07:40:36;2.50;99.90
50570;DHT22;36525;49.398;7.614;2024-03-08T07:43:07;2.50;99.90
50570;DHT22;36525;49.398;7.614;2024-03-08T07:45:34;2.60;99.90
50570;DHT22;36525;49.398;7.614;2024-03-08T07:48:02;2.70;99.90
50570;DHT22;36525;49.398;7.614;2024-03-08T07:50:30;2.70;99.90
50570;DHT22;36525;49.398;7.614;2024-03-08T07:53:00;2.90;99.90
50570;DHT22;36525;49.398;7.614;2024-03-08T07:55:28;3.00;99.90
50570;DHT22;36525;49.398;7.614;2024-03-08T07:57:55;3.30;99.90
50570;DHT22;36525;49.398;7.614;2024-03-08T08:02:50;4.10;99.90
50570;DHT22;36525;49.398;7.614;2024-03-08T08:05:17;4.50;99.90
50570;DHT22;36525;49.398;7.614;2024-03-08T08:07:45;5.10;99.90
50570;DHT22;36525;49.398;7.614;2024-03-08T08:10:15;5.30;99.90
50570;DHT22;36525;49.398;7.614;2024-03-08T08:12:48;6.00;99.90
50570;DHT22;36525;49.398;7.614;2024-03-08T08:15:15;6.90;99.90
50570;DHT22;36525;49.398;7.614;2024-03-08T08:17:42;7.50;99.90
50570;DHT22;36525;49.398;7.614;2024-03-08T08:20:10;7.50;99.90
50570;DHT22;36525;49.398;7.614;2024-03-08T08:22:38;7.20;99.90
50570;DHT22;36525;49.398;7.614;2024-03-08T08:25:07;6.70;99.90
50570;DHT22;36525;49.398;7.614;2024-03-08T08:27:34;6.90;99.90
50570;DHT22;36525;49.398;7.614;2024-03-08T08:30:03;7.40;99.90
50570;DHT22;36525;49.398;7.614;2024-03-08T08:32:35;7.80;99.90
50570;DHT22;36525;49.398;7.614;2024-03-08T08:35:03;8.40;99.90
50570;DHT22;36525;49.398;7.614;2024-03-08T08:37:31;8.50;99.90
50570;DHT22;36525;49.398;7.614;2024-03-08T08:39:58;7.90;99.90
50570;DHT22;36525;49.398;7.614;2024-03-08T08:42:28;7.60;99.90
50570;DHT22;36525;49.398;7.614;2024-03-08T08:44:55;8.10;99.90
50570;DHT22;36525;49.398;7.614;2024-03-08T08:47:22;7.80;99.90
50570;DHT22;36525;49.398;7.614;2024-03-08T08:49:50;7.80;99.90
50570;DHT22;36525;49.398;7.614;2024-03-08T08:52:17;8.20;99.90
50570;DHT22;36525;49.398;7.614;2024-03-08T08:54:45;8.80;99.90
50570;DHT22;36525;49.398;7.614;2024-03-08T08:57:15;8.50;99.90
50570;DHT22;36525;49.398;7.614;2024-03-08T08:59:42;8.80;99.90
50570;DHT22;36525;49.398;7.614;2024-03-08T09:02:09;9.10;99.90
50570;DHT22;36525;49.398;7.614;2024-03-08T09:04:40;9.50;99.90
50570;DHT22;36525;49.398;7.614;2024-03-08T09:07:07;9.30;99.90
50570;DHT22;36525;49.398;7.614;2024-03-08T09:09:34;9.20;99.90
50570;DHT22;36525;49.398;7.614;2024-03-08T09:12:01;9.20;99.90
50570;DHT22;36525;49.398;7.614;2024-03-08T09:14:28;8.60;99.90
50570;DHT22;36525;49.398;7.614;2024-03-08T09:16:56;8.60;99.90
50570;DHT22;36525;49.398;7.614;2024-03-08T09:19:23;8.50;99.90
50570;DHT22;36525;49.398;7.614;2024-03-08T09:21:52;8.60;99.90
50570;DHT22;36525;49.398;7.614;2024-03-08T09:24:19;8.80;99.90
50570;DHT22;36525;49.398;7.614;2024-03-08T09:26:46;8.80;99.90
50570;DHT22;36525;49.398;7.614;2024-03-08T09:29:13;9.40;99.90
50570;DHT22;36525;49.398;7.614;2024-03-08T09:31:39;9.80;99.90
50570;DHT22;36525;49.398;7.614;2024-03-08T09:34:07;10.10;99.90
50570;DHT22;36525;49.398;7.614;2024-03-08T09:36:37;10.20;99.90
50570;DHT22;36525;49.398;7.614;2024-03-08T09:39:04;10.20;99.90
50570;DHT22;36525;49.398;7.614;2024-03-08T09:41:33;9.40;99.90
50570;DHT22;36525;49.398;7.614;2024-03-08T09:44:00;8.90;99.90
50570;DHT22;36525;49.398;7.614;2024-03-08T09:46:27;8.40;99.90
50570;DHT22;36525;49.398;7.614;2024-03-08T09:48:54;8.10;99.90
50570;DHT22;36525;49.398;7.614;2024-03-08T09:51:22;7.80;99.90
50570;DHT22;36525;49.398;7.614;2024-03-08T09:53:54;7.50;99.90
50570;DHT22;36525;49.398;7.614;2024-03-08T09:56:21;7.30;99.90
50570;DHT22;36525;49.398;7.614;2024-03-08T09:58:50;7.20;99.90
50570;DHT22;36525;49.398;7.614;2024-03-08T10:01:35;6.90;99.90
50570;DHT22;36525;49.398;7.614;2024-03-08T10:04:02;6.70;99.90
50570;DHT22;36525;49.398;7.614;2024-03-08T10:06:29;6.40;99.90
50570;DHT22;36525;49.398;7.614;2024-03-08T10:08:56;6.40;99.90
50570;DHT22;36525;49.398;7.614;2024-03-08T10:11:26;6.40;99.90
50570;DHT22;36525;49.398;7.614;2024-03-08T10:13:54;6.30;99.90
50570;DHT22;36525;49.398;7.614;2024-03-08T10:16:21;6.30;99.90
50570;DHT22;36525;49.398;7.614;2024-03-08T10:18:50;6.40;99.90
50570;DHT22;36525;49.398;7.614;2024-03-08T10:21:19;6.40;99.90
50570;DHT22;36525;49.398;7.614;2024-03-08T10:23:46;6.30;99.90
50570;DHT22;36525;49.398;7.614;2024-03-08T10:26:17;6.40;99.90
50570;DHT22;36525;49.398;7.614;2024-03-08T10:28:51;6.40;99.90
50570;DHT22;36525;49.398;7.614;2024-03-08T10:31:19;6.20;99.90
50570;DHT22;36525;49.398;7.614;2024-03-08T10:33:46;6.20;99.90
50570;DHT22;36525;49.398;7.614;2024-03-08T10:36:13;6.10;99.90
50570;DHT22;36525;49.398;7.614;2024-03-08T10:38:41;6.00;99.90
50570;DHT22;36525;49.398;7.614;2024-03-08T10:41:09;5.90;99.90
50570;DHT22;36525;49.398;7.614;2024-03-08T10:43:43;6.00;99.90
50570;DHT22;36525;49.398;7.614;2024-03-08T10:49:01;5.90;99.90
50570;DHT22;36525;49.398;7.614;2024-03-08T10:51:30;5.90;99.90
50570;DHT22;36525;49.398;7.614;2024-03-08T10:53:57;6.00;99.90
50570;DHT22;36525;49.398;7.614;2024-03-08T10:56:26;6.00;99.90
50570;DHT22;36525;49.398;7.614;2024-03-08T10:58:54;6.10;99.90
50570;DHT22;36525;49.398;7.614;2024-03-08T11:01:22;6.00;99.90
50570;DHT22;36525;49.398;7.614;2024-03-08T11:03:50;6.00;99.90
50570;DHT22;36525;49.398;7.614;2024-03-08T11:08:57;6.30;99.90
50570;DHT22;36525;49.398;7.614;2024-03-08T11:11:26;6.30;99.90
50570;DHT22;36525;49.398;7.614;2024-03-08T11:14:01;6.40;99.90
50570;DHT22;36525;49.398;7.614;2024-03-08T11:21:32;6.40;99.90
50570;DHT22;36525;49.398;7.614;2024-03-08T11:24:06;6.50;99.90
50570;DHT22;36525;49.398;7.614;2024-03-08T11:26:34;6.40;99.90
50570;DHT22;36525;49.398;7.614;2024-03-08T11:34:32;6.40;99.90
50570;DHT22;36525;49.398;7.614;2024-03-08T11:36:59;6.50;99.90
50570;DHT22;36525;49.398;7.614;2024-03-08T11:39:26;6.60;99.90
50570;DHT22;36525;49.398;7.614;2024-03-08T11:41:55;6.70;99.90
50570;DHT22;36525;49.398;7.614;2024-03-08T11:44:24;6.90;99.90
50570;DHT22;36525;49.398;7.614;2024-03-08T11:46:54;6.90;99.90
50570;DHT22;36525;49.398;7.614;2024-03-08T11:49:21;6.90;99.90
50570;DHT22;36525;49.398;7.614;2024-03-08T11:51:50;6.90;99.90
50570;DHT22;36525;49.398;7.614;2024-03-08T11:54:19;7.00;99.90
50570;DHT22;36525;49.398;7.614;2024-03-08T11:56:46;6.90;99.90
50570;DHT22;36525;49.398;7.614;2024-03-08T11:59:15;6.90;99.90
50570;DHT22;36525;49.398;7.614;2024-03-08T12:01:44;6.90;99.90
50570;DHT22;36525;49.398;7.614;2024-03-08T12:04:32;6.90;99.90
50570;DHT22;36525;49.398;7.614;2024-03-08T12:06:59;7.00;99.90
50570;DHT22;36525;49.398;7.614;2024-03-08T12:09:35;7.00;99.90
50570;DHT22;36525;49.398;7.614;2024-03-08T12:12:03;7.10;99.90
50570;DHT22;36525;49.398;7.614;2024-03-08T12:14:30;7.20;99.90
50570;DHT22;36525;49.398;7.614;2024-03-08T12:16:58;7.20;99.90
50570;DHT22;36525;49.398;7.614;2024-03-08T12:19:27;7.20;99.90
50570;DHT22;36525;49.398;7.614;2024-03-08T12:21:55;7.10;99.90
50570;DHT22;36525;49.398;7.614;2024-03-08T12:24:22;7.20;99.90
50570;DHT22;36525;49.398;7.614;2024-03-08T12:26:50;7.20;99.90
50570;DHT22;36525;49.398;7.614;2024-03-08T12:29:19;7.20;99.90
50570;DHT22;36525;49.398;7.614;2024-03-08T12:32:00;7.20;99.90
50570;DHT22;36525;49.398;7.614;2024-03-08T12:34:27;7.00;99.90
50570;DHT22;36525;49.398;7.614;2024-03-08T12:36:55;7.00;99.90
50570;DHT22;36525;49.398;7.614;2024-03-08T12:39:22;7.00;99.90
50570;DHT22;36525;49.398;7.614;2024-03-08T12:41:53;7.10;99.90
50570;DHT22;36525;49.398;7.614;2024-03-08T12:44:20;7.20;99.90
50570;DHT22;36525;49.398;7.614;2024-03-08T12:46:51;7.20;99.90
50570;DHT22;36525;49.398;7.614;2024-03-08T12:49:20;7.20;99.90
50570;DHT22;36525;49.398;7.614;2024-03-08T12:51:50;7.30;99.90
50570;DHT22;36525;49.398;7.614;2024-03-08T12:54:19;7.60;99.90
50570;DHT22;36525;49.398;7.614;2024-03-08T12:56:50;7.70;99.90
50570;DHT22;36525;49.398;7.614;2024-03-08T12:59:20;7.90;99.90
50570;DHT22;36525;49.398;7.614;2024-03-08T13:01:48;8.00;99.90
50570;DHT22;36525;49.398;7.614;2024-03-08T13:04:15;8.20;99.90
50570;DHT22;36525;49.398;7.614;2024-03-08T13:06:42;8.30;99.90
50570;DHT22;36525;49.398;7.614;2024-03-08T13:09:09;8.20;99.90
50570;DHT22;36525;49.398;7.614;2024-03-08T13:11:35;8.30;99.90
50570;DHT22;36525;49.398;7.614;2024-03-08T13:14:03;8.60;99.90
50570;DHT22;36525;49.398;7.614;2024-03-08T13:16:32;8.60;99.90
50570;DHT22;36525;49.398;7.614;2024-03-08T13:18:59;8.50;99.90
50570;DHT22;36525;49.398;7.614;2024-03-08T13:21:26;8.60;99.90
50570;DHT22;36525;49.398;7.614;2024-03-08T13:23:53;8.70;99.90
50570;DHT22;36525;49.398;7.614;2024-03-08T13:26:20;8.80;99.90
50570;DHT22;36525;49.398;7.614;2024-03-08T13:28:47;9.30;99.90
50570;DHT22;36525;49.398;7.614;2024-03-08T13:31:21;10.40;99.90
50570;DHT22;36525;49.398;7.614;2024-03-08T13:33:48;11.50;99.90
50570;DHT22;36525;49.398;7.614;2024-03-08T13:36:14;11.80;99.90
50570;DHT22;36525;49.398;7.614;2024-03-08T13:38:43;12.30;99.90
50570;DHT22;36525;49.398;7.614;2024-03-08T13:43:38;11.90;99.90
50570;DHT22;36525;49.398;7.614;2024-03-08T13:46:06;12.70;99.90
50570;DHT22;36525;49.398;7.614;2024-03-08T13:48:34;12.90;99.90
50570;DHT22;36525;49.398;7.614;2024-03-08T13:51:01;13.00;99.90
50570;DHT22;36525;49.398;7.614;2024-03-08T13:53:27;13.20;99.90
50570;DHT22;36525;49.398;7.614;2024-03-08T13:58:23;14.10;99.90
50570;DHT22;36525;49.398;7.614;2024-03-08T14:00:50;14.40;99.90
50570;DHT22;36525;49.398;7.614;2024-03-08T14:03:18;14.20;99.90
50570;DHT22;36525;49.398;7.614;2024-03-08T14:05:44;14.00;99.90
50570;DHT22;36525;49.398;7.614;2024-03-08T14:08:13;14.00;99.90
50570;DHT22;36525;49.398;7.614;2024-03-08T14:10:40;14.10;99.90
50570;DHT22;36525;49.398;7.614;2024-03-08T14:13:09;14.40;99.90
50570;DHT22;36525;49.398;7.614;2024-03-08T14:15:38;14.60;99.90
50570;DHT22;36525;49.398;7.614;2024-03-08T14:18:08;14.70;99.50
50570;DHT22;36525;49.398;7.614;2024-03-08T14:20:35;14.50;99.90
50570;DHT22;36525;49.398;7.614;2024-03-08T14:23:02;14.90;99.90
50570;DHT22;36525;49.398;7.614;2024-03-08T14:25:32;15.30;99.10
50570;DHT22;36525;49.398;7.614;2024-03-08T14:27:59;14.90;98.60
50570;DHT22;36525;49.398;7.614;2024-03-08T14:30:34;14.80;98.30
50570;DHT22;36525;49.398;7.614;2024-03-08T14:33:02;14.70;98.90
50570;DHT22;36525;49.398;7.614;2024-03-08T14:35:46;14.50;98.60
50570;DHT22;36525;49.398;7.614;2024-03-08T14:38:14;14.70;99.90
50570;DHT22;36525;49.398;7.614;2024-03-08T14:40:43;15.50;98.40
50570;DHT22;36525;49.398;7.614;2024-03-08T14:43:13;15.30;97.00
50570;DHT22;36525;49.398;7.614;2024-03-08T14:45:41;14.90;98.40
50570;DHT22;36525;49.398;7.614;2024-03-08T14:48:08;15.60;98.50
50570;DHT22;36525;49.398;7.614;2024-03-08T14:50:35;16.20;97.20
50570;DHT22;36525;49.398;7.614;2024-03-08T14:53:03;16.70;96.30
50570;DHT22;36525;49.398;7.614;2024-03-08T14:55:33;16.90;97.00
50570;DHT22;36525;49.398;7.614;2024-03-08T14:58:01;17.00;95.90
50570;DHT22;36525;49.398;7.614;2024-03-08T15:00:28;17.10;95.30
50570;DHT22;36525;49.398;7.614;2024-03-08T15:05:31;17.20;94.40
50570;DHT22;36525;49.398;7.614;2024-03-08T15:07:59;16.90;94.10
50570;DHT22;36525;49.398;7.614;2024-03-08T15:10:36;16.20;94.30
50570;DHT22;36525;49.398;7.614;2024-03-08T15:13:03;15.80;95.10
50570;DHT22;36525;49.398;7.614;2024-03-08T15:15:41;15.50;94.90
50570;DHT22;36525;49.398;7.614;2024-03-08T15:18:09;15.00;96.10
50570;DHT22;36525;49.398;7.614;2024-03-08T15:20:38;15.00;95.70
50570;DHT22;36525;49.398;7.614;2024-03-08T15:23:05;15.10;95.80
50570;DHT22;36525;49.398;7.614;2024-03-08T15:25:32;15.30;95.60
50570;DHT22;36525;49.398;7.614;2024-03-08T15:28:01;15.30;95.40
50570;DHT22;36525;49.398;7.614;2024-03-08T15:30:31;15.20;95.80
50570;DHT22;36525;49.398;7.614;2024-03-08T15:33:00;15.10;95.70
50570;DHT22;36525;49.398;7.614;2024-03-08T15:35:29;14.80;96.30
50570;DHT22;36525;49.398;7.614;2024-03-08T15:37:58;14.50;96.00
50570;DHT22;36525;49.398;7.614;2024-03-08T15:40:26;14.50;95.80
50570;DHT22;36525;49.398;7.614;2024-03-08T15:42:57;14.30;96.40
50570;DHT22;36525;49.398;7.614;2024-03-08T15:45:24;14.90;95.70
50570;DHT22;36525;49.398;7.614;2024-03-08T15:47:53;15.20;95.30
50570;DHT22;36525;49.398;7.614;2024-03-08T15:50:20;15.20;95.40
50570;DHT22;36525;49.398;7.614;2024-03-08T15:52:50;15.10;95.30
50570;DHT22;36525;49.398;7.614;2024-03-08T15:55:21;15.00;95.30
50570;DHT22;36525;49.398;7.614;2024-03-08T15:57:50;14.80;96.00
50570;DHT22;36525;49.398;7.614;2024-03-08T16:00:20;14.70;95.40
50570;DHT22;36525;49.398;7.614;2024-03-08T16:03:02;14.80;95.60
50570;DHT22;36525;49.398;7.614;2024-03-08T16:05:33;14.80;95.10
50570;DHT22;36525;49.398;7.614;2024-03-08T16:08:01;14.60;95.40
50570;DHT22;36525;49.398;7.614;2024-03-08T16:10:28;14.40;95.90
50570;DHT22;36525;49.398;7.614;2024-03-08T16:12:56;14.80;95.20
50570;DHT22;36525;49.398;7.614;2024-03-08T16:15:23;15.00;95.80